createdAt,value
2019-03-04T00:01:23.711Z,16.70
2019-03-04T00:04:13.690Z,13.63
2019-03-04T00:07:04.313Z,14.83
2019-03-04T00:09:54.771Z,14.13
2019-03-04T00:12:45.313Z,16.33
2019-03-04T00:15:36.047Z,13.33
2019-03-04T00:18:26.539Z,13.10
2019-03-04T00:21:16.736Z,15.30
2019-03-04T00:24:07.063Z,15.23
2019-03-04T00:26:57.465Z,14.60
2019-03-04T00:29:47.848Z,17.03
2019-03-04T00:32:38.270Z,13.10
2019-03-04T00:35:28.969Z,16.33
2019-03-04T00:38:19.065Z,13.60
2019-03-04T00:41:09.788Z,14.50
2019-03-04T00:44:01.043Z,13.13
2019-03-04T00:46:51.569Z,15.00
2019-03-04T00:49:41.821Z,13.73
2019-03-04T00:52:32.567Z,16.10
2019-03-04T00:55:22.580Z,18.77
2019-03-04T00:58:13.383Z,14.53
2019-03-04T01:01:03.701Z,13.70
2019-03-04T01:03:54.015Z,12.50
2019-03-04T01:06:44.423Z,15.73
2019-03-04T01:09:34.707Z,16.47
2019-03-04T01:12:25.106Z,14.27
2019-03-04T01:15:19.848Z,18.70
2019-03-04T01:18:12.236Z,14.60
2019-03-04T01:21:02.411Z,18.10
2019-03-04T01:23:53.775Z,16.17
2019-03-04T01:26:44.214Z,14.13
2019-03-04T01:29:34.799Z,15.17
2019-03-04T01:32:25.365Z,14.43
2019-03-04T01:35:15.487Z,15.70
2019-03-04T01:38:05.817Z,14.63
2019-03-04T01:40:56.133Z,16.10
2019-03-04T01:43:46.494Z,14.70
2019-03-04T01:46:36.590Z,16.40
2019-03-04T01:49:26.903Z,15.43
2019-03-04T01:52:17.486Z,16.03
2019-03-04T01:55:08.826Z,15.73
2019-03-04T01:57:59.614Z,15.47
2019-03-04T02:00:50.307Z,15.00
2019-03-04T02:03:40.679Z,14.03
2019-03-04T02:06:31.031Z,13.63
2019-03-04T02:09:21.382Z,15.07
2019-03-04T02:12:11.459Z,13.93
2019-03-04T02:15:01.741Z,13.07
2019-03-04T02:17:53.274Z,14.80
2019-03-04T02:20:44.673Z,13.17
2019-03-04T02:23:35.065Z,14.47
2019-03-04T02:26:28.016Z,15.67
2019-03-04T02:29:18.447Z,17.60
2019-03-04T02:32:08.855Z,13.80
2019-03-04T02:34:59.083Z,13.73
2019-03-04T02:37:50.089Z,14.67
2019-03-04T02:40:40.476Z,14.57
2019-03-04T02:43:30.755Z,15.00
2019-03-04T02:46:21.159Z,16.27
2019-03-04T02:49:11.433Z,15.90
2019-03-04T02:52:01.741Z,14.53
2019-03-04T02:54:52.113Z,15.33
2019-03-04T02:57:42.411Z,15.33
2019-03-04T03:00:32.636Z,14.63
2019-03-04T03:03:23.158Z,13.50
2019-03-04T03:06:13.576Z,13.57
2019-03-04T03:09:06.171Z,16.10
2019-03-04T03:11:58.003Z,13.90
2019-03-04T03:14:50.737Z,16.70
2019-03-04T03:17:40.888Z,12.67
2019-03-04T03:20:31.520Z,13.10
2019-03-04T03:23:21.927Z,14.70
2019-03-04T03:26:12.106Z,15.40
2019-03-04T03:29:05.650Z,15.53
2019-03-04T03:31:56.154Z,14.40
2019-03-04T03:34:46.165Z,17.60
2019-03-04T03:37:36.540Z,16.03
2019-03-04T03:40:26.918Z,14.37
2019-03-04T03:43:17.272Z,14.90
2019-03-04T03:46:07.674Z,15.73
2019-03-04T03:48:57.996Z,13.97
2019-03-04T03:51:48.417Z,14.83
2019-03-04T03:54:38.653Z,15.63
2019-03-04T03:57:30.128Z,14.17
2019-03-04T04:00:20.745Z,15.33
2019-03-04T04:03:11.196Z,15.97
2019-03-04T04:06:01.484Z,14.17
2019-03-04T04:08:51.842Z,14.07
2019-03-04T04:11:42.176Z,14.23
2019-03-04T04:14:32.485Z,14.87
2019-03-04T04:17:22.850Z,15.17
2019-03-04T04:20:13.587Z,13.37
2019-03-04T04:23:06.016Z,15.77
2019-03-04T04:25:56.463Z,15.47
2019-03-04T04:28:47.006Z,15.93
2019-03-04T04:31:37.434Z,17.77
2019-03-04T04:34:28.251Z,16.13
2019-03-04T04:37:18.699Z,14.30
2019-03-04T04:40:09.057Z,14.80
2019-03-04T04:42:59.281Z,15.47
2019-03-04T04:45:49.785Z,14.80
2019-03-04T04:48:42.616Z,15.37
2019-03-04T04:51:32.872Z,17.17
2019-03-04T04:54:23.474Z,16.13
2019-03-04T04:57:13.957Z,14.57
2019-03-04T05:00:04.260Z,15.93
2019-03-04T05:02:55.950Z,13.60
2019-03-04T05:05:45.978Z,16.20
2019-03-04T05:08:36.309Z,15.23
2019-03-04T05:11:26.838Z,15.30
2019-03-04T05:14:17.127Z,13.10
2019-03-04T05:17:07.422Z,16.70
2019-03-04T05:19:57.918Z,12.80
2019-03-04T05:22:48.258Z,14.97
2019-03-04T05:25:38.499Z,15.07
2019-03-04T05:28:29.037Z,14.97
2019-03-04T05:31:19.142Z,16.77
2019-03-04T05:34:09.505Z,13.93
2019-03-04T05:36:59.995Z,13.90
2019-03-04T05:39:50.427Z,14.23
2019-03-04T05:42:40.766Z,17.60
2019-03-04T05:45:31.203Z,14.60
2019-03-04T05:48:22.272Z,16.47
2019-03-04T05:51:12.511Z,13.10
2019-03-04T05:54:02.938Z,12.00
2019-03-04T05:56:53.248Z,11.57
2019-03-04T05:59:43.811Z,13.27
2019-03-04T06:02:34.202Z,11.63
2019-03-04T06:05:26.526Z,13.10
2019-03-04T06:08:16.857Z,11.23
2019-03-04T06:11:07.001Z,11.97
2019-03-04T06:13:57.339Z,11.00
2019-03-04T06:16:47.759Z,11.80
2019-03-04T06:19:38.141Z,9.50
2019-03-04T06:22:28.621Z,10.50
2019-03-04T06:25:24.177Z,10.60
2019-03-04T06:28:14.715Z,10.37
2019-03-04T06:31:05.068Z,9.80
2019-03-04T06:33:56.084Z,10.20
2019-03-04T06:36:46.930Z,10.68
2019-03-04T06:39:37.961Z,11.35
2019-03-04T06:42:28.892Z,9.48
2019-03-04T06:45:19.832Z,9.95
2019-03-04T06:48:10.693Z,9.25
2019-03-04T06:51:02.061Z,9.55
2019-03-04T06:54:32.305Z,10.68
2019-03-04T06:57:28.657Z,10.58
2019-03-04T07:01:02.880Z,11.00
2019-03-04T07:04:20.861Z,10.58
2019-03-04T07:07:11.699Z,10.20
2019-03-04T07:10:02.666Z,9.83
2019-03-04T07:12:54.464Z,9.23
2019-03-04T07:15:45.129Z,11.00
2019-03-04T07:18:36.181Z,12.60
2019-03-04T07:21:27.583Z,12.93
2019-03-04T07:24:18.671Z,14.05
2019-03-04T07:27:09.674Z,11.78
2019-03-04T07:30:00.649Z,10.93
2019-03-04T07:32:52.005Z,12.47
2019-03-04T07:35:43.116Z,13.35
2019-03-04T07:38:50.125Z,13.33
2019-03-04T07:41:42.533Z,10.57
2019-03-04T07:44:32.702Z,11.03
2019-03-04T07:47:23.742Z,12.78
2019-03-04T07:50:14.460Z,11.40
2019-03-04T07:53:06.804Z,11.50
2019-03-04T07:55:57.766Z,10.45
2019-03-04T07:58:48.785Z,11.12
2019-03-04T08:01:39.217Z,10.13
2019-03-04T08:04:29.406Z,13.17
2019-03-04T08:07:41.751Z,11.97
2019-03-04T08:11:13.265Z,9.87
2019-03-04T08:14:04.222Z,11.17
2019-03-04T08:16:54.602Z,10.80
2019-03-04T08:19:46.367Z,10.33
2019-03-04T08:22:36.393Z,12.73
2019-03-04T08:25:27.032Z,10.40
2019-03-04T08:28:17.452Z,12.77
2019-03-04T08:31:07.815Z,11.57
2019-03-04T08:33:58.070Z,11.60
2019-03-04T08:36:51.185Z,12.83
2019-03-04T08:39:41.153Z,12.47
2019-03-04T08:42:31.619Z,10.57
2019-03-04T08:45:21.925Z,14.10
2019-03-04T08:48:12.414Z,13.00
2019-03-04T08:51:02.756Z,11.53
2019-03-04T08:53:53.571Z,11.20
2019-03-04T08:56:46.613Z,12.07
2019-03-04T08:59:36.777Z,11.73
2019-03-04T09:02:27.059Z,11.50
2019-03-04T09:05:17.249Z,12.20
2019-03-04T09:08:07.726Z,13.77
2019-03-04T09:10:57.862Z,12.37
2019-03-04T09:13:48.064Z,15.33
2019-03-04T09:16:38.571Z,15.33
2019-03-04T09:19:28.850Z,13.57
2019-03-04T09:22:19.262Z,11.83
2019-03-04T09:25:13.324Z,13.37
2019-03-04T09:28:04.862Z,13.93
2019-03-04T09:30:55.075Z,12.63
2019-03-04T09:33:45.317Z,12.37
2019-03-04T09:36:36.452Z,12.60
2019-03-04T09:39:27.258Z,13.60
2019-03-04T09:42:24.888Z,10.40
2019-03-04T09:45:18.012Z,12.70
2019-03-04T09:48:08.085Z,12.30
2019-03-04T09:50:58.391Z,12.23
2019-03-04T09:53:48.457Z,9.97
2019-03-04T09:56:38.776Z,9.50
2019-03-04T09:59:29.066Z,12.40
2019-03-04T10:02:27.524Z,10.50
2019-03-04T10:05:53.383Z,9.73
2019-03-04T10:08:54.554Z,9.30
2019-03-04T10:12:12.038Z,10.47
2019-03-04T10:15:50.049Z,12.03
2019-03-04T10:19:27.603Z,13.70
2019-03-04T10:22:49.606Z,11.33
2019-03-04T10:26:30.014Z,12.37
2019-03-04T10:29:57.142Z,11.93
2019-03-04T10:33:27.661Z,13.60
2019-03-04T10:36:27.639Z,11.17
2019-03-04T10:40:06.240Z,11.53
2019-03-04T10:43:45.777Z,13.03
2019-03-04T10:47:07.242Z,12.23
2019-03-04T10:49:57.620Z,12.47
2019-03-04T10:52:47.941Z,11.20
2019-03-04T10:55:41.938Z,10.27
2019-03-04T10:58:29.793Z,11.13
2019-03-04T11:01:29.939Z,12.23
2019-03-04T11:04:11.991Z,11.43
2019-03-04T11:07:02.443Z,10.57
2019-03-04T11:09:52.560Z,12.07
2019-03-04T11:12:44.113Z,10.47
2019-03-04T11:15:34.380Z,9.93
2019-03-04T11:18:24.724Z,12.63
2019-03-04T11:21:15.090Z,10.77
2019-03-04T11:24:06.907Z,10.43
2019-03-04T11:26:57.791Z,9.03
2019-03-04T11:29:48.500Z,9.47
2019-03-04T11:32:41.263Z,11.47
2019-03-04T11:35:31.817Z,11.43
2019-03-04T11:38:42.466Z,11.53
2019-03-04T11:41:32.958Z,11.03
2019-03-04T11:44:23.454Z,10.23
2019-03-04T11:47:14.011Z,8.93
2019-03-04T11:50:04.682Z,9.13
2019-03-04T11:52:55.473Z,9.97
2019-03-04T11:55:45.808Z,10.23
2019-03-04T11:58:36.168Z,9.13
2019-03-04T12:01:35.962Z,10.07
2019-03-04T12:04:26.983Z,11.67
2019-03-04T12:07:17.519Z,13.57
2019-03-04T12:10:11.019Z,10.23
2019-03-04T12:13:01.616Z,9.33
2019-03-04T12:15:51.718Z,9.30
2019-03-04T12:18:42.137Z,10.83
2019-03-04T12:21:33.553Z,9.77
2019-03-04T12:24:23.536Z,8.07
2019-03-04T12:27:13.744Z,9.73
2019-03-04T12:30:04.458Z,9.93
2019-03-04T12:32:54.714Z,10.87
2019-03-04T12:35:44.765Z,8.33
2019-03-04T12:38:36.772Z,11.10
2019-03-04T12:41:27.202Z,10.13
2019-03-04T12:44:17.544Z,10.37
2019-03-04T12:47:07.928Z,9.73
2019-03-04T12:49:58.512Z,10.83
2019-03-04T12:52:48.799Z,8.33
2019-03-04T12:55:39.224Z,10.73
2019-03-04T12:58:29.549Z,10.87
2019-03-04T13:01:19.678Z,9.17
2019-03-04T13:04:09.938Z,10.47
2019-03-04T13:07:00.138Z,8.40
2019-03-04T13:09:50.289Z,9.90
2019-03-04T13:12:40.571Z,12.80
2019-03-04T13:15:31.165Z,8.77
2019-03-04T13:18:23.989Z,11.27
2019-03-04T13:21:14.847Z,7.80
2019-03-04T13:24:05.423Z,9.53
2019-03-04T13:26:55.767Z,8.60
2019-03-04T13:29:47.631Z,9.20
2019-03-04T13:32:37.598Z,8.57
2019-03-04T13:35:28.120Z,8.30
2019-03-04T13:38:18.442Z,9.67
2019-03-04T13:41:08.759Z,7.90
2019-03-04T13:44:01.322Z,9.37
2019-03-04T13:46:51.989Z,9.17
2019-03-04T13:49:42.304Z,12.20
2019-03-04T13:52:32.616Z,9.07
2019-03-04T13:55:23.093Z,12.13
2019-03-04T13:58:15.956Z,9.03
2019-03-04T14:01:07.095Z,9.10
2019-03-04T14:03:57.385Z,7.73
2019-03-04T14:06:47.356Z,7.93
2019-03-04T14:09:38.135Z,6.40
2019-03-04T14:12:28.060Z,8.07
2019-03-04T14:15:21.272Z,6.53
2019-03-04T14:18:11.396Z,6.93
2019-03-04T14:21:03.843Z,8.83
2019-03-04T14:23:54.161Z,8.67
2019-03-04T14:26:44.285Z,7.33
2019-03-04T14:29:34.559Z,8.67
2019-03-04T14:32:25.078Z,7.17
2019-03-04T14:35:15.362Z,10.17
2019-03-04T14:38:06.210Z,8.10
2019-03-04T14:40:56.591Z,8.20
2019-03-04T14:43:47.118Z,8.90
2019-03-04T14:46:37.307Z,10.53
2019-03-04T14:49:27.410Z,11.23
2019-03-04T14:52:17.582Z,12.20
2019-03-04T14:55:10.069Z,12.53
2019-03-04T14:58:01.886Z,9.73
2019-03-04T15:00:52.003Z,11.70
2019-03-04T15:03:42.220Z,10.50
2019-03-04T15:06:32.559Z,9.80
2019-03-04T15:09:22.886Z,11.27
2019-03-04T15:12:14.305Z,10.43
2019-03-04T15:15:04.357Z,11.93
2019-03-04T15:17:55.753Z,9.43
2019-03-04T15:20:46.101Z,9.40
2019-03-04T15:23:36.468Z,11.77
2019-03-04T15:26:26.536Z,10.30
2019-03-04T15:29:16.843Z,11.20
2019-03-04T15:32:07.216Z,8.87
2019-03-04T15:34:58.628Z,10.33
2019-03-04T15:37:48.948Z,12.17
2019-03-04T15:40:39.496Z,11.33
2019-03-04T15:43:29.841Z,10.93
2019-03-04T15:46:20.368Z,9.20
2019-03-04T15:49:10.518Z,10.17
2019-03-04T15:52:01.188Z,8.70
2019-03-04T15:54:52.409Z,9.07
2019-03-04T15:57:42.705Z,11.93
2019-03-04T16:00:33.067Z,8.90
2019-03-04T16:03:23.249Z,9.97
2019-03-04T16:06:13.565Z,10.63
2019-03-04T16:09:04.716Z,10.87
2019-03-04T16:11:55.779Z,8.83
2019-03-04T16:14:45.925Z,9.33
2019-03-04T16:17:36.023Z,10.33
2019-03-04T16:20:27.030Z,9.37
2019-03-04T16:23:17.288Z,8.87
2019-03-04T16:26:13.628Z,9.20
2019-03-04T16:29:03.988Z,8.50
2019-03-04T16:31:54.817Z,9.83
2019-03-04T16:34:45.308Z,9.80
2019-03-04T16:37:35.835Z,9.83
2019-03-04T16:40:26.269Z,9.80
2019-03-04T16:43:16.515Z,9.53
2019-03-04T16:46:06.815Z,9.20
2019-03-04T16:48:57.026Z,10.83
2019-03-04T16:51:47.320Z,10.17
2019-03-04T16:54:37.603Z,9.70
2019-03-04T16:57:27.860Z,9.67
2019-03-04T17:00:19.321Z,8.07
2019-03-04T17:03:09.414Z,10.20
2019-03-04T17:06:00.075Z,9.67
2019-03-04T17:08:50.291Z,10.67
2019-03-04T17:11:40.726Z,8.97
2019-03-04T17:14:31.104Z,8.13
2019-03-04T17:17:21.243Z,8.23
2019-03-04T17:20:12.302Z,10.00
2019-03-04T17:23:02.755Z,8.30
2019-03-04T17:25:52.990Z,9.47
2019-03-04T17:28:43.359Z,9.10
2019-03-04T17:31:33.580Z,9.60
2019-03-04T17:34:24.346Z,9.90
2019-03-04T17:37:14.762Z,11.30
2019-03-04T17:40:05.760Z,9.30
2019-03-04T17:42:55.864Z,14.43
2019-03-04T17:45:46.338Z,10.80
2019-03-04T17:48:36.561Z,10.77
2019-03-04T17:51:26.855Z,10.00
2019-03-04T17:54:17.189Z,11.33
2019-03-04T17:57:07.695Z,10.03
2019-03-04T17:59:58.069Z,8.63
2019-03-04T18:02:49.072Z,9.77
2019-03-04T18:05:39.387Z,10.77
2019-03-04T18:08:29.835Z,8.30
2019-03-04T18:11:20.264Z,9.63
2019-03-04T18:14:10.838Z,11.10
2019-03-04T18:17:01.115Z,8.33
2019-03-04T18:19:51.546Z,8.83
2019-03-04T18:22:42.765Z,7.87
2019-03-04T18:25:37.587Z,9.80
2019-03-04T18:29:01.131Z,11.40
2019-03-04T18:32:05.165Z,8.80
2019-03-04T18:35:27.833Z,8.83
2019-03-04T18:38:38.756Z,11.60
2019-03-04T18:41:47.833Z,8.50
2019-03-04T18:44:45.266Z,7.97
2019-03-04T18:47:55.118Z,10.63
2019-03-04T18:50:45.734Z,7.83
2019-03-04T18:53:36.904Z,9.20
2019-03-04T18:56:29.782Z,9.70
2019-03-04T18:59:20.136Z,8.80
2019-03-04T19:02:10.229Z,7.80
2019-03-04T19:05:00.810Z,8.50
2019-03-04T19:07:51.332Z,8.13
2019-03-04T19:10:41.442Z,7.60
2019-03-04T19:13:31.492Z,9.93
2019-03-04T19:16:21.792Z,8.50
2019-03-04T19:19:12.183Z,9.00
2019-03-04T19:22:02.480Z,8.03
2019-03-04T19:24:55.926Z,8.43
2019-03-04T19:27:46.339Z,7.77
2019-03-04T19:30:37.401Z,10.13
2019-03-04T19:33:27.639Z,9.40
2019-03-04T19:36:18.020Z,8.90
2019-03-04T19:39:09.794Z,10.77
2019-03-04T19:42:00.667Z,11.20
2019-03-04T19:44:51.145Z,9.10
2019-03-04T19:47:41.831Z,9.37
2019-03-04T19:50:32.371Z,11.00
2019-03-04T19:53:22.507Z,11.17
2019-03-04T19:56:12.943Z,10.93
2019-03-04T19:59:03.391Z,9.70
2019-03-04T20:01:53.982Z,9.80
2019-03-04T20:04:44.384Z,9.80
2019-03-04T20:07:34.801Z,8.40
2019-03-04T20:10:25.267Z,11.03
2019-03-04T20:13:15.716Z,8.00
2019-03-04T20:16:07.221Z,9.97
2019-03-04T20:18:57.603Z,8.60
2019-03-04T20:21:48.597Z,8.80
2019-03-04T20:24:38.920Z,9.03
2019-03-04T20:27:30.508Z,8.17
2019-03-04T20:30:21.847Z,9.03
2019-03-04T20:33:12.053Z,10.57
2019-03-04T20:36:02.379Z,8.80
2019-03-04T20:38:52.698Z,8.13
2019-03-04T20:41:43.027Z,9.97
2019-03-04T20:44:33.321Z,9.47
2019-03-04T20:47:23.318Z,9.60
2019-03-04T20:50:16.726Z,10.77
2019-03-04T20:53:09.108Z,8.87
2019-03-04T20:56:00.686Z,7.70
2019-03-04T20:58:51.233Z,10.53
2019-03-04T21:01:41.767Z,13.70
2019-03-04T21:04:32.177Z,10.53
2019-03-04T21:07:22.816Z,8.47
2019-03-04T21:10:13.457Z,10.33
2019-03-04T21:13:11.018Z,9.83
2019-03-04T21:16:01.106Z,11.83
2019-03-04T21:18:52.127Z,8.30
2019-03-04T21:21:42.615Z,8.57
2019-03-04T21:24:32.996Z,9.43
2019-03-04T21:27:23.318Z,9.43
2019-03-04T21:31:03.900Z,9.30
2019-03-04T21:34:16.073Z,11.20
2019-03-04T21:37:34.073Z,13.33
2019-03-04T21:40:29.360Z,13.23
2019-03-04T21:43:34.124Z,13.97
2019-03-04T21:47:20.573Z,12.63
2019-03-04T21:50:12.607Z,9.77
2019-03-04T21:53:10.720Z,10.87
2019-03-04T21:56:40.567Z,11.80
2019-03-04T21:59:30.652Z,8.63
2019-03-04T22:02:31.628Z,11.83
2019-03-04T22:05:21.724Z,9.90
2019-03-04T22:08:12.529Z,10.70
2019-03-04T22:11:02.761Z,8.50
2019-03-04T22:13:52.846Z,11.73
2019-03-04T22:16:43.223Z,11.20
2019-03-04T22:19:33.679Z,9.33
2019-03-04T22:22:23.926Z,9.07
2019-03-04T22:25:14.586Z,10.00
2019-03-04T22:28:05.150Z,10.90
2019-03-04T22:30:55.530Z,10.27
2019-03-04T22:33:45.633Z,10.83
2019-03-04T22:36:36.191Z,9.13
2019-03-04T22:39:26.448Z,12.10
2019-03-04T22:42:19.484Z,14.57
2019-03-04T22:45:12.811Z,13.37
2019-03-04T22:48:03.109Z,10.63
2019-03-04T22:50:54.562Z,12.23
2019-03-04T22:53:45.189Z,10.03
2019-03-04T22:56:35.275Z,10.73
2019-03-04T22:59:25.772Z,12.53
2019-03-04T23:02:17.389Z,10.13
2019-03-04T23:05:15.920Z,11.30
2019-03-04T23:08:05.974Z,12.30
2019-03-04T23:10:56.339Z,13.23
2019-03-04T23:13:54.653Z,11.17
2019-03-04T23:16:45.004Z,11.50
2019-03-04T23:19:35.259Z,12.07
2019-03-04T23:22:25.615Z,9.83
2019-03-04T23:25:15.681Z,9.70
2019-03-04T23:28:05.921Z,10.37
2019-03-04T23:30:59.823Z,10.53
2019-03-04T23:33:49.025Z,12.53
2019-03-04T23:36:40.291Z,10.67
2019-03-04T23:39:31.723Z,10.93
2019-03-04T23:42:22.217Z,14.33
2019-03-04T23:45:12.920Z,13.40
2019-03-04T23:48:03.410Z,11.17
2019-03-04T23:50:54.177Z,11.53
2019-03-04T23:53:44.716Z,13.63
2019-03-04T23:56:34.874Z,10.17
2019-03-04T23:59:25.207Z,12.33
